Current | Forecast
Updated: 11:50 AM EEST on April 25, 2018
Observed at Vilnius, Belarus
Temperature 52°F
Humidity 62%
Dew Point 39°F
Wind WSW at 14 mph
Pressure 29.74 in (Steady)
Conditions Mostly Cloudy
Visibility 6.2 miles
UV 4 out of 16
Clouds Mostly Cloudy (BKN) : 3000 ft
Yesterday's Maximum 59°F
Yesterday's Minimum 46°F approx.
Yesterday's Heating Degree Days 12 approx.
Sunrise5:56 AM +03
Sunset8:40 PM +03
Moon Rise2:53 PM +03
Moon Set4:37 AM +03
Moon PhaseMoon Phase
Waxing Gibbous
Raw METARMETAR EYVI 250850Z 24012KT 9999 BKN030 11/04 Q1007 NOSIG


Monday
. High: 53° F.
Tuesday
. High: 57° F.
Wednesday
. High: 68° F.
Thursday
. High: 71° F.
Friday
. High: 66° F.
Saturday
. High: 57° F.
Sunday
. High: 59° F.
Monday
. High: 53° F.

Units: English | Metric

Find the Weather for any City, State or Zipcode, or Country:

U.S. State List | Severe Weather | Tropical Storms | Ski Conditions
United States | Canada | Central America | South America | Asia | Europe | Australia | Africa | Islands

Weather Underground

© Copyright 2018
The Weather Company, LLC